sensor_id;sensor_type;location;lat;lon;timestamp;P1;durP1;ratioP1;P2;durP2;ratioP2
11245;SDS011;59870;50.106;8.580;2023-05-20T00:00:01;2.90;;;2.70;;
11245;SDS011;59870;50.106;8.580;2023-05-20T00:02:31;3.33;;;2.80;;
11245;SDS011;59870;50.106;8.580;2023-05-20T00:04:59;3.87;;;2.80;;
11245;SDS011;59870;50.106;8.580;2023-05-20T00:07:26;3.40;;;2.87;;
11245;SDS011;59870;50.106;8.580;2023-05-20T00:09:54;3.00;;;2.80;;
11245;SDS011;59870;50.106;8.580;2023-05-20T00:12:21;4.17;;;3.10;;
11245;SDS011;59870;50.106;8.580;2023-05-20T00:14:49;3.57;;;2.83;;
11245;SDS011;59870;50.106;8.580;2023-05-20T00:17:16;2.57;;;2.37;;
11245;SDS011;59870;50.106;8.580;2023-05-20T00:19:44;3.03;;;2.83;;
11245;SDS011;59870;50.106;8.580;2023-05-20T00:22:11;3.27;;;3.07;;
11245;SDS011;59870;50.106;8.580;2023-05-20T00:24:38;4.63;;;2.53;;
11245;SDS011;59870;50.106;8.580;2023-05-20T00:27:06;3.27;;;2.87;;
11245;SDS011;59870;50.106;8.580;2023-05-20T00:29:33;2.47;;;2.37;;
11245;SDS011;59870;50.106;8.580;2023-05-20T00:32:01;3.23;;;2.93;;
11245;SDS011;59870;50.106;8.580;2023-05-20T00:34:28;4.23;;;3.20;;
11245;SDS011;59870;50.106;8.580;2023-05-20T00:36:56;3.20;;;3.00;;
11245;SDS011;59870;50.106;8.580;2023-05-20T00:39:23;3.23;;;3.00;;
11245;SDS011;59870;50.106;8.580;2023-05-20T00:41:51;4.87;;;3.13;;
11245;SDS011;59870;50.106;8.580;2023-05-20T00:44:18;3.20;;;3.00;;
11245;SDS011;59870;50.106;8.580;2023-05-20T00:46:49;3.03;;;2.83;;
11245;SDS011;59870;50.106;8.580;2023-05-20T00:49:17;3.07;;;2.90;;
11245;SDS011;59870;50.106;8.580;2023-05-20T00:51:45;4.67;;;3.10;;
11245;SDS011;59870;50.106;8.580;2023-05-20T00:54:13;5.40;;;3.23;;
11245;SDS011;59870;50.106;8.580;2023-05-20T00:56:41;3.10;;;2.90;;
11245;SDS011;59870;50.106;8.580;2023-05-20T00:59:09;3.07;;;2.87;;
11245;SDS011;59870;50.106;8.580;2023-05-20T01:01:37;3.60;;;3.30;;
11245;SDS011;59870;50.106;8.580;2023-05-20T01:04:05;3.23;;;3.03;;
11245;SDS011;59870;50.106;8.580;2023-05-20T01:06:32;4.00;;;2.87;;
11245;SDS011;59870;50.106;8.580;2023-05-20T01:09:00;3.67;;;3.37;;
11245;SDS011;59870;50.106;8.580;2023-05-20T01:11:29;3.77;;;3.57;;
11245;SDS011;59870;50.106;8.580;2023-05-20T01:14:06;3.70;;;3.30;;
11245;SDS011;59870;50.106;8.580;2023-05-20T01:16:35;3.80;;;3.50;;
11245;SDS011;59870;50.106;8.580;2023-05-20T01:19:06;2.93;;;2.73;;
11245;SDS011;59870;50.106;8.580;2023-05-20T01:21:48;3.37;;;3.07;;
11245;SDS011;59870;50.106;8.580;2023-05-20T01:24:17;9.13;;;3.10;;
11245;SDS011;59870;50.106;8.580;2023-05-20T01:26:45;3.23;;;3.03;;
11245;SDS011;59870;50.106;8.580;2023-05-20T01:29:14;3.67;;;3.37;;
11245;SDS011;59870;50.106;8.580;2023-05-20T01:31:44;3.30;;;3.00;;
11245;SDS011;59870;50.106;8.580;2023-05-20T01:34:14;3.37;;;3.03;;
11245;SDS011;59870;50.106;8.580;2023-05-20T01:36:42;4.80;;;3.23;;
11245;SDS011;59870;50.106;8.580;2023-05-20T01:39:12;4.63;;;3.20;;
11245;SDS011;59870;50.106;8.580;2023-05-20T01:41:41;3.30;;;3.10;;
11245;SDS011;59870;50.106;8.580;2023-05-20T01:44:09;3.80;;;3.50;;
11245;SDS011;59870;50.106;8.580;2023-05-20T01:46:37;3.30;;;2.97;;
11245;SDS011;59870;50.106;8.580;2023-05-20T01:49:04;3.10;;;2.90;;
11245;SDS011;59870;50.106;8.580;2023-05-20T01:51:32;4.40;;;3.40;;
11245;SDS011;59870;50.106;8.580;2023-05-20T01:54:02;3.07;;;2.83;;
11245;SDS011;59870;50.106;8.580;2023-05-20T01:56:29;3.20;;;3.00;;
11245;SDS011;59870;50.106;8.580;2023-05-20T01:58:58;3.43;;;3.13;;
11245;SDS011;59870;50.106;8.580;2023-05-20T02:01:25;3.27;;;3.07;;
11245;SDS011;59870;50.106;8.580;2023-05-20T02:03:53;2.87;;;2.67;;
11245;SDS011;59870;50.106;8.580;2023-05-20T02:06:20;2.93;;;2.73;;
11245;SDS011;59870;50.106;8.580;2023-05-20T02:08:48;6.00;;;3.07;;
11245;SDS011;59870;50.106;8.580;2023-05-20T02:11:15;3.17;;;3.03;;
11245;SDS011;59870;50.106;8.580;2023-05-20T02:13:43;3.67;;;3.37;;
11245;SDS011;59870;50.106;8.580;2023-05-20T02:16:10;4.77;;;3.50;;
11245;SDS011;59870;50.106;8.580;2023-05-20T02:18:38;3.90;;;2.90;;
11245;SDS011;59870;50.106;8.580;2023-05-20T02:21:05;3.47;;;3.13;;
11245;SDS011;59870;50.106;8.580;2023-05-20T02:23:33;3.87;;;3.17;;
11245;SDS011;59870;50.106;8.580;2023-05-20T02:26:00;3.50;;;3.30;;
11245;SDS011;59870;50.106;8.580;2023-05-20T02:28:28;4.90;;;3.13;;
11245;SDS011;59870;50.106;8.580;2023-05-20T02:30:55;3.60;;;3.30;;
11245;SDS011;59870;50.106;8.580;2023-05-20T02:33:22;3.13;;;2.93;;
11245;SDS011;59870;50.106;8.580;2023-05-20T02:35:50;8.87;;;3.10;;
11245;SDS011;59870;50.106;8.580;2023-05-20T02:38:18;3.53;;;3.30;;
11245;SDS011;59870;50.106;8.580;2023-05-20T02:40:45;3.00;;;2.80;;
11245;SDS011;59870;50.106;8.580;2023-05-20T02:43:12;4.03;;;3.53;;
11245;SDS011;59870;50.106;8.580;2023-05-20T02:45:40;3.60;;;2.97;;
11245;SDS011;59870;50.106;8.580;2023-05-20T02:48:08;3.70;;;3.50;;
11245;SDS011;59870;50.106;8.580;2023-05-20T02:50:39;4.00;;;3.70;;
11245;SDS011;59870;50.106;8.580;2023-05-20T02:53:07;3.37;;;3.17;;
11245;SDS011;59870;50.106;8.580;2023-05-20T02:55:34;9.37;;;3.50;;
11245;SDS011;59870;50.106;8.580;2023-05-20T02:58:02;3.27;;;3.07;;
11245;SDS011;59870;50.106;8.580;2023-05-20T03:00:32;3.23;;;3.03;;
11245;SDS011;59870;50.106;8.580;2023-05-20T03:03:07;3.53;;;3.33;;
11245;SDS011;59870;50.106;8.580;2023-05-20T03:05:36;4.33;;;3.90;;
11245;SDS011;59870;50.106;8.580;2023-05-20T03:08:05;3.60;;;3.40;;
11245;SDS011;59870;50.106;8.580;2023-05-20T03:10:35;3.70;;;3.40;;
11245;SDS011;59870;50.106;8.580;2023-05-20T03:13:06;4.17;;;3.87;;
11245;SDS011;59870;50.106;8.580;2023-05-20T03:15:36;3.60;;;3.30;;
11245;SDS011;59870;50.106;8.580;2023-05-20T03:18:05;3.83;;;3.57;;
11245;SDS011;59870;50.106;8.580;2023-05-20T03:20:35;3.53;;;3.33;;
11245;SDS011;59870;50.106;8.580;2023-05-20T03:23:05;3.57;;;3.30;;
11245;SDS011;59870;50.106;8.580;2023-05-20T03:25:35;4.93;;;3.30;;
11245;SDS011;59870;50.106;8.580;2023-05-20T03:28:04;3.60;;;3.40;;
11245;SDS011;59870;50.106;8.580;2023-05-20T03:30:34;3.53;;;3.33;;
11245;SDS011;59870;50.106;8.580;2023-05-20T03:33:02;3.77;;;3.47;;
11245;SDS011;59870;50.106;8.580;2023-05-20T03:35:31;3.43;;;3.23;;
11245;SDS011;59870;50.106;8.580;2023-05-20T03:37:59;3.90;;;3.60;;
11245;SDS011;59870;50.106;8.580;2023-05-20T03:40:28;3.80;;;3.37;;
11245;SDS011;59870;50.106;8.580;2023-05-20T03:42:56;7.33;;;3.23;;
11245;SDS011;59870;50.106;8.580;2023-05-20T03:45:24;3.87;;;3.60;;
11245;SDS011;59870;50.106;8.580;2023-05-20T03:47:58;3.63;;;3.43;;
11245;SDS011;59870;50.106;8.580;2023-05-20T03:50:26;5.67;;;3.77;;
11245;SDS011;59870;50.106;8.580;2023-05-20T03:52:53;4.10;;;3.80;;
11245;SDS011;59870;50.106;8.580;2023-05-20T03:55:22;4.93;;;3.90;;
11245;SDS011;59870;50.106;8.580;2023-05-20T03:57:51;3.47;;;3.27;;
11245;SDS011;59870;50.106;8.580;2023-05-20T04:00:18;4.40;;;4.10;;
11245;SDS011;59870;50.106;8.580;2023-05-20T04:02:48;4.20;;;3.87;;
11245;SDS011;59870;50.106;8.580;2023-05-20T04:05:18;4.97;;;4.50;;
11245;SDS011;59870;50.106;8.580;2023-05-20T04:07:47;4.07;;;3.67;;
11245;SDS011;59870;50.106;8.580;2023-05-20T04:10:17;5.17;;;4.07;;
11245;SDS011;59870;50.106;8.580;2023-05-20T04:12:46;4.77;;;4.00;;
11245;SDS011;59870;50.106;8.580;2023-05-20T04:15:14;3.90;;;3.60;;
11245;SDS011;59870;50.106;8.580;2023-05-20T04:17:52;4.50;;;4.10;;
11245;SDS011;59870;50.106;8.580;2023-05-20T04:20:22;3.70;;;3.40;;
11245;SDS011;59870;50.106;8.580;2023-05-20T04:22:52;4.37;;;3.67;;
11245;SDS011;59870;50.106;8.580;2023-05-20T04:25:20;4.77;;;3.77;;
11245;SDS011;59870;50.106;8.580;2023-05-20T04:27:48;4.03;;;3.63;;
11245;SDS011;59870;50.106;8.580;2023-05-20T04:30:16;4.13;;;3.80;;
11245;SDS011;59870;50.106;8.580;2023-05-20T04:32:44;4.60;;;4.20;;
11245;SDS011;59870;50.106;8.580;2023-05-20T04:35:11;4.80;;;4.43;;
11245;SDS011;59870;50.106;8.580;2023-05-20T04:37:42;4.37;;;3.97;;
11245;SDS011;59870;50.106;8.580;2023-05-20T04:40:18;3.70;;;3.47;;
11245;SDS011;59870;50.106;8.580;2023-05-20T04:42:48;3.90;;;3.60;;
11245;SDS011;59870;50.106;8.580;2023-05-20T04:45:15;4.63;;;4.33;;
11245;SDS011;59870;50.106;8.580;2023-05-20T04:47:44;4.40;;;4.00;;
11245;SDS011;59870;50.106;8.580;2023-05-20T04:50:13;4.10;;;3.80;;
11245;SDS011;59870;50.106;8.580;2023-05-20T04:52:40;5.00;;;4.57;;
11245;SDS011;59870;50.106;8.580;2023-05-20T04:55:10;4.17;;;3.87;;
11245;SDS011;59870;50.106;8.580;2023-05-20T04:57:38;5.00;;;4.60;;
11245;SDS011;59870;50.106;8.580;2023-05-20T05:00:09;4.67;;;4.30;;
11245;SDS011;59870;50.106;8.580;2023-05-20T05:02:39;4.50;;;4.20;;
11245;SDS011;59870;50.106;8.580;2023-05-20T05:05:07;4.70;;;4.40;;
11245;SDS011;59870;50.106;8.580;2023-05-20T05:07:34;4.27;;;3.87;;
11245;SDS011;59870;50.106;8.580;2023-05-20T05:10:02;5.03;;;4.57;;
11245;SDS011;59870;50.106;8.580;2023-05-20T05:12:32;4.67;;;3.87;;
11245;SDS011;59870;50.106;8.580;2023-05-20T05:15:00;4.53;;;4.23;;
11245;SDS011;59870;50.106;8.580;2023-05-20T05:17:30;4.50;;;4.10;;
11245;SDS011;59870;50.106;8.580;2023-05-20T05:19:57;4.53;;;4.07;;
11245;SDS011;59870;50.106;8.580;2023-05-20T05:22:29;4.60;;;4.20;;
11245;SDS011;59870;50.106;8.580;2023-05-20T05:24:57;4.73;;;4.33;;
11245;SDS011;59870;50.106;8.580;2023-05-20T05:27:24;4.30;;;4.10;;
11245;SDS011;59870;50.106;8.580;2023-05-20T05:29:52;5.13;;;4.17;;
11245;SDS011;59870;50.106;8.580;2023-05-20T05:32:19;4.77;;;4.47;;
11245;SDS011;59870;50.106;8.580;2023-05-20T05:34:47;4.77;;;4.47;;
11245;SDS011;59870;50.106;8.580;2023-05-20T05:37:14;5.90;;;4.23;;
11245;SDS011;59870;50.106;8.580;2023-05-20T05:39:42;4.73;;;4.10;;
11245;SDS011;59870;50.106;8.580;2023-05-20T05:42:10;4.37;;;4.03;;
11245;SDS011;59870;50.106;8.580;2023-05-20T05:44:38;4.60;;;4.30;;
11245;SDS011;59870;50.106;8.580;2023-05-20T05:47:07;4.40;;;4.10;;
11245;SDS011;59870;50.106;8.580;2023-05-20T05:49:35;5.00;;;4.60;;
11245;SDS011;59870;50.106;8.580;2023-05-20T05:52:03;6.23;;;4.07;;
11245;SDS011;59870;50.106;8.580;2023-05-20T05:54:31;5.00;;;4.70;;
11245;SDS011;59870;50.106;8.580;2023-05-20T05:56:58;4.90;;;4.60;;
11245;SDS011;59870;50.106;8.580;2023-05-20T05:59:28;4.90;;;4.60;;
11245;SDS011;59870;50.106;8.580;2023-05-20T06:01:56;4.73;;;4.43;;
11245;SDS011;59870;50.106;8.580;2023-05-20T06:04:23;5.30;;;4.87;;
11245;SDS011;59870;50.106;8.580;2023-05-20T06:06:54;5.13;;;4.83;;
11245;SDS011;59870;50.106;8.580;2023-05-20T06:09:21;4.63;;;4.43;;
11245;SDS011;59870;50.106;8.580;2023-05-20T06:11:50;4.77;;;4.47;;
11245;SDS011;59870;50.106;8.580;2023-05-20T06:14:18;4.50;;;4.20;;
11245;SDS011;59870;50.106;8.580;2023-05-20T06:16:45;5.47;;;4.97;;
11245;SDS011;59870;50.106;8.580;2023-05-20T06:19:13;5.90;;;4.87;;
11245;SDS011;59870;50.106;8.580;2023-05-20T06:21:40;4.83;;;4.43;;
11245;SDS011;59870;50.106;8.580;2023-05-20T06:24:07;5.67;;;5.17;;
11245;SDS011;59870;50.106;8.580;2023-05-20T06:26:35;5.33;;;4.70;;
11245;SDS011;59870;50.106;8.580;2023-05-20T06:29:04;5.73;;;5.23;;
11245;SDS011;59870;50.106;8.580;2023-05-20T06:31:31;5.53;;;5.10;;
11245;SDS011;59870;50.106;8.580;2023-05-20T06:33:59;5.90;;;5.40;;
11245;SDS011;59870;50.106;8.580;2023-05-20T06:36:26;5.27;;;4.87;;
11245;SDS011;59870;50.106;8.580;2023-05-20T06:38:55;5.33;;;4.83;;
11245;SDS011;59870;50.106;8.580;2023-05-20T06:41:23;5.77;;;5.27;;
11245;SDS011;59870;50.106;8.580;2023-05-20T06:43:52;5.37;;;4.97;;
11245;SDS011;59870;50.106;8.580;2023-05-20T06:46:35;5.63;;;5.23;;
11245;SDS011;59870;50.106;8.580;2023-05-20T06:49:05;5.73;;;5.37;;
11245;SDS011;59870;50.106;8.580;2023-05-20T06:51:32;10.57;;;5.40;;
11245;SDS011;59870;50.106;8.580;2023-05-20T06:54:00;6.03;;;5.63;;
11245;SDS011;59870;50.106;8.580;2023-05-20T06:56:30;5.90;;;5.50;;
11245;SDS011;59870;50.106;8.580;2023-05-20T06:58:58;5.90;;;5.43;;
11245;SDS011;59870;50.106;8.580;2023-05-20T07:01:26;6.43;;;5.93;;
11245;SDS011;59870;50.106;8.580;2023-05-20T07:03:55;5.53;;;5.13;;
11245;SDS011;59870;50.106;8.580;2023-05-20T07:06:23;6.47;;;5.97;;
11245;SDS011;59870;50.106;8.580;2023-05-20T07:08:51;5.97;;;5.57;;
11245;SDS011;59870;50.106;8.580;2023-05-20T07:11:18;6.10;;;5.60;;
11245;SDS011;59870;50.106;8.580;2023-05-20T07:13:47;6.23;;;5.73;;
11245;SDS011;59870;50.106;8.580;2023-05-20T07:16:14;10.20;;;5.13;;
11245;SDS011;59870;50.106;8.580;2023-05-20T07:18:47;6.00;;;5.60;;
11245;SDS011;59870;50.106;8.580;2023-05-20T07:21:15;6.07;;;5.63;;
11245;SDS011;59870;50.106;8.580;2023-05-20T07:24:02;6.67;;;6.17;;
11245;SDS011;59870;50.106;8.580;2023-05-20T07:26:30;6.20;;;5.80;;
11245;SDS011;59870;50.106;8.580;2023-05-20T07:28:59;6.57;;;6.07;;
11245;SDS011;59870;50.106;8.580;2023-05-20T07:31:27;6.97;;;6.50;;
11245;SDS011;59870;50.106;8.580;2023-05-20T07:33:56;6.57;;;6.17;;
11245;SDS011;59870;50.106;8.580;2023-05-20T07:36:27;6.33;;;5.83;;
11245;SDS011;59870;50.106;8.580;2023-05-20T07:38:57;6.73;;;6.23;;
11245;SDS011;59870;50.106;8.580;2023-05-20T07:41:33;9.87;;;6.63;;
11245;SDS011;59870;50.106;8.580;2023-05-20T07:44:04;6.77;;;6.20;;
11245;SDS011;59870;50.106;8.580;2023-05-20T07:46:34;7.13;;;6.40;;
11245;SDS011;59870;50.106;8.580;2023-05-20T07:49:03;6.70;;;6.20;;
11245;SDS011;59870;50.106;8.580;2023-05-20T07:51:32;6.27;;;5.83;;
11245;SDS011;59870;50.106;8.580;2023-05-20T07:54:00;7.37;;;6.70;;
11245;SDS011;59870;50.106;8.580;2023-05-20T07:56:28;7.23;;;6.53;;
11245;SDS011;59870;50.106;8.580;2023-05-20T07:58:57;6.63;;;6.23;;
11245;SDS011;59870;50.106;8.580;2023-05-20T08:01:29;7.80;;;6.97;;
11245;SDS011;59870;50.106;8.580;2023-05-20T08:03:57;7.70;;;7.00;;
11245;SDS011;59870;50.106;8.580;2023-05-20T08:06:24;7.10;;;6.60;;
11245;SDS011;59870;50.106;8.580;2023-05-20T08:08:56;7.40;;;6.87;;
11245;SDS011;59870;50.106;8.580;2023-05-20T08:11:30;7.33;;;6.83;;
11245;SDS011;59870;50.106;8.580;2023-05-20T08:13:57;7.40;;;6.80;;
11245;SDS011;59870;50.106;8.580;2023-05-20T08:16:30;7.50;;;6.90;;
11245;SDS011;59870;50.106;8.580;2023-05-20T08:18:58;7.93;;;7.33;;
11245;SDS011;59870;50.106;8.580;2023-05-20T08:21:26;7.00;;;6.40;;
11245;SDS011;59870;50.106;8.580;2023-05-20T08:23:54;7.63;;;7.03;;
11245;SDS011;59870;50.106;8.580;2023-05-20T08:26:21;7.07;;;6.53;;
11245;SDS011;59870;50.106;8.580;2023-05-20T08:28:49;7.80;;;7.20;;
11245;SDS011;59870;50.106;8.580;2023-05-20T08:31:18;8.13;;;6.83;;
11245;SDS011;59870;50.106;8.580;2023-05-20T08:33:45;7.60;;;7.17;;
11245;SDS011;59870;50.106;8.580;2023-05-20T08:36:13;7.90;;;7.20;;
11245;SDS011;59870;50.106;8.580;2023-05-20T08:38:43;7.67;;;7.07;;
11245;SDS011;59870;50.106;8.580;2023-05-20T08:41:12;7.83;;;7.20;;
11245;SDS011;59870;50.106;8.580;2023-05-20T08:43:42;7.93;;;7.07;;
11245;SDS011;59870;50.106;8.580;2023-05-20T08:46:10;8.40;;;7.80;;
11245;SDS011;59870;50.106;8.580;2023-05-20T08:48:38;8.03;;;7.33;;
11245;SDS011;59870;50.106;8.580;2023-05-20T08:51:06;6.83;;;6.33;;
11245;SDS011;59870;50.106;8.580;2023-05-20T08:53:35;8.10;;;7.50;;
11245;SDS011;59870;50.106;8.580;2023-05-20T08:56:03;7.80;;;7.30;;
11245;SDS011;59870;50.106;8.580;2023-05-20T08:58:31;11.10;;;7.20;;
11245;SDS011;59870;50.106;8.580;2023-05-20T09:00:59;9.67;;;7.77;;
11245;SDS011;59870;50.106;8.580;2023-05-20T09:03:28;8.13;;;7.50;;
11245;SDS011;59870;50.106;8.580;2023-05-20T09:06:06;9.53;;;7.37;;
11245;SDS011;59870;50.106;8.580;2023-05-20T09:08:34;8.83;;;8.10;;
11245;SDS011;59870;50.106;8.580;2023-05-20T09:11:02;8.77;;;8.13;;
11245;SDS011;59870;50.106;8.580;2023-05-20T09:13:30;8.00;;;7.60;;
11245;SDS011;59870;50.106;8.580;2023-05-20T09:15:59;8.10;;;7.60;;
11245;SDS011;59870;50.106;8.580;2023-05-20T09:18:28;7.83;;;7.30;;
11245;SDS011;59870;50.106;8.580;2023-05-20T09:20:57;8.00;;;7.33;;
11245;SDS011;59870;50.106;8.580;2023-05-20T09:23:24;7.47;;;7.07;;
11245;SDS011;59870;50.106;8.580;2023-05-20T09:25:53;7.67;;;7.07;;
11245;SDS011;59870;50.106;8.580;2023-05-20T09:28:21;6.83;;;6.43;;
11245;SDS011;59870;50.106;8.580;2023-05-20T09:30:59;8.00;;;7.40;;
11245;SDS011;59870;50.106;8.580;2023-05-20T09:33:27;8.63;;;7.50;;
11245;SDS011;59870;50.106;8.580;2023-05-20T09:36:02;7.23;;;6.73;;
11245;SDS011;59870;50.106;8.580;2023-05-20T09:38:32;7.43;;;6.93;;
11245;SDS011;59870;50.106;8.580;2023-05-20T09:41:11;7.80;;;7.20;;
11245;SDS011;59870;50.106;8.580;2023-05-20T09:43:39;7.77;;;7.17;;
11245;SDS011;59870;50.106;8.580;2023-05-20T09:46:07;8.80;;;8.07;;
11245;SDS011;59870;50.106;8.580;2023-05-20T09:48:36;7.27;;;6.77;;
11245;SDS011;59870;50.106;8.580;2023-05-20T09:51:04;6.90;;;6.50;;
11245;SDS011;59870;50.106;8.580;2023-05-20T09:53:33;7.87;;;7.27;;
11245;SDS011;59870;50.106;8.580;2023-05-20T09:56:01;7.83;;;7.23;;
11245;SDS011;59870;50.106;8.580;2023-05-20T09:58:28;7.30;;;6.77;;
11245;SDS011;59870;50.106;8.580;2023-05-20T10:00:56;7.07;;;6.67;;
11245;SDS011;59870;50.106;8.580;2023-05-20T10:03:24;8.03;;;7.43;;
11245;SDS011;59870;50.106;8.580;2023-05-20T10:05:58;8.47;;;7.80;;
11245;SDS011;59870;50.106;8.580;2023-05-20T10:14:21;7.90;;;7.37;;
11245;SDS011;59870;50.106;8.580;2023-05-20T10:19:38;8.33;;;7.63;;
11245;SDS011;59870;50.106;8.580;2023-05-20T10:22:06;7.70;;;7.20;;
11245;SDS011;59870;50.106;8.580;2023-05-20T10:24:36;8.13;;;7.50;;
11245;SDS011;59870;50.106;8.580;2023-05-20T10:27:07;9.27;;;7.57;;
11245;SDS011;59870;50.106;8.580;2023-05-20T10:29:50;8.53;;;7.63;;
11245;SDS011;59870;50.106;8.580;2023-05-20T10:34:58;8.33;;;7.83;;
11245;SDS011;59870;50.106;8.580;2023-05-20T10:37:28;7.47;;;6.97;;
11245;SDS011;59870;50.106;8.580;2023-05-20T10:40:06;6.97;;;6.57;;
11245;SDS011;59870;50.106;8.580;2023-05-20T10:42:39;7.63;;;7.13;;
11245;SDS011;59870;50.106;8.580;2023-05-20T10:45:07;8.17;;;7.57;;
11245;SDS011;59870;50.106;8.580;2023-05-20T10:47:35;8.23;;;7.63;;
11245;SDS011;59870;50.106;8.580;2023-05-20T10:50:12;9.00;;;7.30;;
11245;SDS011;59870;50.106;8.580;2023-05-20T10:53:03;7.63;;;7.13;;
11245;SDS011;59870;50.106;8.580;2023-05-20T10:55:39;7.70;;;7.20;;
11245;SDS011;59870;50.106;8.580;2023-05-20T10:58:08;8.13;;;7.60;;
11245;SDS011;59870;50.106;8.580;2023-05-20T11:00:36;8.30;;;7.70;;
11245;SDS011;59870;50.106;8.580;2023-05-20T11:03:04;7.47;;;6.87;;
11245;SDS011;59870;50.106;8.580;2023-05-20T11:05:33;8.73;;;8.13;;
11245;SDS011;59870;50.106;8.580;2023-05-20T11:08:01;8.97;;;8.07;;
11245;SDS011;59870;50.106;8.580;2023-05-20T11:10:46;8.03;;;7.37;;
11245;SDS011;59870;50.106;8.580;2023-05-20T11:13:13;7.57;;;7.07;;
11245;SDS011;59870;50.106;8.580;2023-05-20T11:15:41;8.60;;;7.80;;
11245;SDS011;59870;50.106;8.580;2023-05-20T11:18:09;7.93;;;7.23;;
11245;SDS011;59870;50.106;8.580;2023-05-20T11:20:38;7.83;;;7.33;;
11245;SDS011;59870;50.106;8.580;2023-05-20T11:23:10;8.20;;;7.33;;
11245;SDS011;59870;50.106;8.580;2023-05-20T11:25:39;7.27;;;6.63;;
11245;SDS011;59870;50.106;8.580;2023-05-20T11:28:08;7.70;;;7.07;;
11245;SDS011;59870;50.106;8.580;2023-05-20T11:30:40;7.83;;;7.33;;
11245;SDS011;59870;50.106;8.580;2023-05-20T11:33:12;8.10;;;7.40;;
11245;SDS011;59870;50.106;8.580;2023-05-20T11:35:48;7.47;;;6.87;;
11245;SDS011;59870;50.106;8.580;2023-05-20T11:38:18;7.10;;;6.60;;
11245;SDS011;59870;50.106;8.580;2023-05-20T11:40:51;7.33;;;6.77;;
11245;SDS011;59870;50.106;8.580;2023-05-20T11:46:41;7.37;;;6.87;;
11245;SDS011;59870;50.106;8.580;2023-05-20T11:49:11;7.33;;;6.73;;
11245;SDS011;59870;50.106;8.580;2023-05-20T11:51:40;6.90;;;6.47;;
11245;SDS011;59870;50.106;8.580;2023-05-20T11:54:09;13.60;;;7.20;;
11245;SDS011;59870;50.106;8.580;2023-05-20T11:56:38;7.40;;;7.00;;
11245;SDS011;59870;50.106;8.580;2023-05-20T11:59:08;7.60;;;7.10;;
11245;SDS011;59870;50.106;8.580;2023-05-20T12:01:38;11.97;;;6.97;;
11245;SDS011;59870;50.106;8.580;2023-05-20T12:04:09;7.50;;;6.83;;
11245;SDS011;59870;50.106;8.580;2023-05-20T12:06:39;7.87;;;7.27;;
11245;SDS011;59870;50.106;8.580;2023-05-20T12:09:08;8.10;;;7.30;;
11245;SDS011;59870;50.106;8.580;2023-05-20T12:11:37;7.63;;;7.00;;
11245;SDS011;59870;50.106;8.580;2023-05-20T12:14:09;7.90;;;7.40;;
11245;SDS011;59870;50.106;8.580;2023-05-20T12:16:37;7.50;;;7.00;;
11245;SDS011;59870;50.106;8.580;2023-05-20T12:19:04;7.23;;;6.73;;
11245;SDS011;59870;50.106;8.580;2023-05-20T12:21:32;8.30;;;7.60;;
11245;SDS011;59870;50.106;8.580;2023-05-20T12:24:00;9.27;;;8.40;;
11245;SDS011;59870;50.106;8.580;2023-05-20T12:26:32;8.60;;;8.00;;
11245;SDS011;59870;50.106;8.580;2023-05-20T12:29:03;8.37;;;7.63;;
11245;SDS011;59870;50.106;8.580;2023-05-20T13:13:08;9.37;;;8.47;;
11245;SDS011;59870;50.106;8.580;2023-05-20T13:15:36;8.57;;;7.73;;
11245;SDS011;59870;50.106;8.580;2023-05-20T13:18:04;8.80;;;8.30;;
11245;SDS011;59870;50.106;8.580;2023-05-20T13:20:33;9.53;;;8.63;;
11245;SDS011;59870;50.106;8.580;2023-05-20T13:23:01;9.30;;;8.50;;
11245;SDS011;59870;50.106;8.580;2023-05-20T13:25:28;8.70;;;7.80;;
11245;SDS011;59870;50.106;8.580;2023-05-20T13:27:57;9.53;;;8.77;;
11245;SDS011;59870;50.106;8.580;2023-05-20T13:30:25;9.00;;;8.20;;
11245;SDS011;59870;50.106;8.580;2023-05-20T13:32:54;9.53;;;8.90;;
11245;SDS011;59870;50.106;8.580;2023-05-20T13:35:21;9.57;;;8.83;;
11245;SDS011;59870;50.106;8.580;2023-05-20T13:37:49;10.23;;;9.23;;
11245;SDS011;59870;50.106;8.580;2023-05-20T13:40:16;9.53;;;8.70;;
11245;SDS011;59870;50.106;8.580;2023-05-20T13:42:44;8.83;;;8.20;;
11245;SDS011;59870;50.106;8.580;2023-05-20T13:45:11;9.80;;;9.10;;
11245;SDS011;59870;50.106;8.580;2023-05-20T13:47:39;9.70;;;9.00;;
11245;SDS011;59870;50.106;8.580;2023-05-20T13:50:07;9.53;;;8.70;;
11245;SDS011;59870;50.106;8.580;2023-05-20T13:52:35;10.20;;;9.37;;
11245;SDS011;59870;50.106;8.580;2023-05-20T13:55:03;9.27;;;8.57;;
11245;SDS011;59870;50.106;8.580;2023-05-20T13:57:31;9.23;;;8.53;;
11245;SDS011;59870;50.106;8.580;2023-05-20T13:59:58;8.87;;;8.27;;
11245;SDS011;59870;50.106;8.580;2023-05-20T14:02:26;9.00;;;8.40;;
11245;SDS011;59870;50.106;8.580;2023-05-20T14:04:53;10.27;;;9.47;;
11245;SDS011;59870;50.106;8.580;2023-05-20T14:07:22;10.10;;;9.20;;
11245;SDS011;59870;50.106;8.580;2023-05-20T14:09:50;8.53;;;7.93;;
11245;SDS011;59870;50.106;8.580;2023-05-20T14:12:18;9.70;;;9.00;;
11245;SDS011;59870;50.106;8.580;2023-05-20T14:14:45;9.20;;;8.37;;
11245;SDS011;59870;50.106;8.580;2023-05-20T14:17:13;9.20;;;8.53;;
11245;SDS011;59870;50.106;8.580;2023-05-20T14:23:01;9.50;;;8.70;;
11245;SDS011;59870;50.106;8.580;2023-05-20T14:25:29;10.77;;;9.80;;
11245;SDS011;59870;50.106;8.580;2023-05-20T14:27:57;9.40;;;8.70;;
11245;SDS011;59870;50.106;8.580;2023-05-20T14:30:24;9.70;;;9.00;;
11245;SDS011;59870;50.106;8.580;2023-05-20T14:32:52;8.70;;;8.20;;
11245;SDS011;59870;50.106;8.580;2023-05-20T14:35:20;9.40;;;8.50;;
11245;SDS011;59870;50.106;8.580;2023-05-20T14:37:48;9.00;;;8.23;;
11245;SDS011;59870;50.106;8.580;2023-05-20T14:40:16;10.47;;;9.60;;
11245;SDS011;59870;50.106;8.580;2023-05-20T14:42:45;9.70;;;8.80;;
11245;SDS011;59870;50.106;8.580;2023-05-20T14:45:12;9.43;;;8.83;;
11245;SDS011;59870;50.106;8.580;2023-05-20T14:47:40;9.27;;;8.57;;
11245;SDS011;59870;50.106;8.580;2023-05-20T14:50:08;9.53;;;8.73;;
11245;SDS011;59870;50.106;8.580;2023-05-20T14:52:38;9.50;;;8.60;;
11245;SDS011;59870;50.106;8.580;2023-05-20T14:55:06;8.43;;;7.93;;
11245;SDS011;59870;50.106;8.580;2023-05-20T14:57:34;10.10;;;9.40;;
11245;SDS011;59870;50.106;8.580;2023-05-20T15:00:02;9.77;;;9.07;;
11245;SDS011;59870;50.106;8.580;2023-05-20T15:02:31;10.10;;;9.20;;
11245;SDS011;59870;50.106;8.580;2023-05-20T15:04:59;9.50;;;8.70;;
11245;SDS011;59870;50.106;8.580;2023-05-20T15:07:27;9.13;;;8.60;;
11245;SDS011;59870;50.106;8.580;2023-05-20T15:09:54;9.23;;;8.43;;
11245;SDS011;59870;50.106;8.580;2023-05-20T15:12:22;9.50;;;8.90;;
11245;SDS011;59870;50.106;8.580;2023-05-20T15:14:49;9.37;;;8.70;;
11245;SDS011;59870;50.106;8.580;2023-05-20T15:17:21;10.00;;;9.37;;
11245;SDS011;59870;50.106;8.580;2023-05-20T15:19:51;9.53;;;8.83;;
11245;SDS011;59870;50.106;8.580;2023-05-20T15:22:19;9.67;;;8.87;;
11245;SDS011;59870;50.106;8.580;2023-05-20T15:24:46;11.57;;;10.57;;
11245;SDS011;59870;50.106;8.580;2023-05-20T15:27:14;11.83;;;10.87;;
11245;SDS011;59870;50.106;8.580;2023-05-20T15:29:41;10.83;;;9.83;;
11245;SDS011;59870;50.106;8.580;2023-05-20T15:32:08;11.93;;;10.93;;
11245;SDS011;59870;50.106;8.580;2023-05-20T15:34:36;11.10;;;10.10;;
11245;SDS011;59870;50.106;8.580;2023-05-20T15:37:03;8.83;;;8.17;;
11245;SDS011;59870;50.106;8.580;2023-05-20T15:39:32;10.03;;;9.33;;
11245;SDS011;59870;50.106;8.580;2023-05-20T15:42:06;11.43;;;10.30;;
11245;SDS011;59870;50.106;8.580;2023-05-20T15:44:34;14.13;;;12.83;;
11245;SDS011;59870;50.106;8.580;2023-05-20T15:47:02;10.83;;;10.03;;
11245;SDS011;59870;50.106;8.580;2023-05-20T15:49:32;9.30;;;8.53;;
11245;SDS011;59870;50.106;8.580;2023-05-20T15:52:00;9.90;;;9.20;;
11245;SDS011;59870;50.106;8.580;2023-05-20T15:54:30;10.97;;;9.67;;